UTY4811 YTGT-YBAS
Flight info
| Callsign | UTY4811 |
|---|---|
| Flight time | 0h 47m |
| Altitude | 37000 |
| Route | SOLLI DCT GEKKO DCT IGDEB |
| Aircraft | E190/M-SDE3GILORVW/S |
Departure
| Time | 2026-04-24 00:28 |
|---|---|
| Airport | The Granites Airport (YTGT) |
Arrival
| Time | 2026-04-24 01:15 |
|---|---|
| Airport | Alice Springs Airport (YBAS) |
| Time | Latitude | Longitude | Altitude | Speed | Heading |
|---|---|---|---|---|---|
| 2026-04-24 00:04 | -20.54894 | 130.34711 | 1301 ft | 0 kts | 29° |
| 2026-04-24 00:21 | -20.54888 | 130.34714 | 1307 ft | 1 kts | 23° |
| 2026-04-24 00:21 | -20.54880 | 130.34711 | 1312 ft | 1 kts | 340° |
| 2026-04-24 00:21 | -20.54870 | 130.34703 | 1304 ft | 3 kts | 324° |
| 2026-04-24 00:21 | -20.54847 | 130.34693 | 1304 ft | 5 kts | 350° |
| 2026-04-24 00:22 | -20.54820 | 130.34697 | 1304 ft | 0 kts | 12° |
| 2026-04-24 00:24 | -20.54812 | 130.34700 | 1301 ft | 4 kts | 16° |
| 2026-04-24 00:24 | -20.54767 | 130.34719 | 1305 ft | 10 kts | 24° |
| 2026-04-24 00:25 | -20.54714 | 130.34701 | 1305 ft | 9 kts | 313° |
| 2026-04-24 00:25 | -20.54682 | 130.34640 | 1306 ft | 10 kts | 296° |
| 2026-04-24 00:25 | -20.54649 | 130.34570 | 1306 ft | 11 kts | 297° |
| 2026-04-24 00:25 | -20.54611 | 130.34488 | 1306 ft | 14 kts | 296° |
| 2026-04-24 00:26 | -20.54562 | 130.34385 | 1302 ft | 18 kts | 297° |
| 2026-04-24 00:26 | -20.54502 | 130.34259 | 1301 ft | 20 kts | 297° |
| 2026-04-24 00:26 | -20.54436 | 130.34119 | 1299 ft | 22 kts | 295° |
| 2026-04-24 00:26 | -20.54397 | 130.34015 | 1298 ft | 4 kts | 324° |
| 2026-04-24 00:27 | -20.54386 | 130.34025 | 1298 ft | 1 kts | 66° |
| 2026-04-24 00:27 | -20.54389 | 130.34032 | 1298 ft | 1 kts | 107° |
| 2026-04-24 00:27 | -20.54392 | 130.34036 | 1298 ft | 0 kts | 117° |
| 2026-04-24 00:27 | -20.54424 | 130.34105 | 1299 ft | 39 kts | 115° |
| 2026-04-24 00:28 | -20.54658 | 130.34593 | 1306 ft | 107 kts | 117° |
| 2026-04-24 00:28 | -20.55097 | 130.35506 | 1400 ft | 162 kts | 115° |
| 2026-04-24 00:28 | -20.55651 | 130.36677 | 2027 ft | 184 kts | 114° |
| 2026-04-24 00:28 | -20.56077 | 130.38035 | 2751 ft | 207 kts | 88° |
| 2026-04-24 00:29 | -20.55879 | 130.39619 | 3617 ft | 225 kts | 78° |
| 2026-04-24 00:29 | -20.55642 | 130.41295 | 4511 ft | 245 kts | 82° |
| 2026-04-24 00:29 | -20.55511 | 130.43214 | 5321 ft | 264 kts | 86° |
| 2026-04-24 00:29 | -20.55419 | 130.45188 | 6558 ft | 267 kts | 86° |
| 2026-04-24 00:30 | -20.55315 | 130.47171 | 7705 ft | 268 kts | 86° |
| 2026-04-24 00:30 | -20.55207 | 130.49169 | 8818 ft | 271 kts | 87° |
| 2026-04-24 00:30 | -20.55095 | 130.51196 | 9935 ft | 275 kts | 88° |
| 2026-04-24 00:30 | -20.54979 | 130.53271 | 10666 ft | 291 kts | 88° |
| 2026-04-24 00:31 | -20.54844 | 130.55495 | 11457 ft | 305 kts | 87° |
| 2026-04-24 00:31 | -20.54704 | 130.57792 | 12405 ft | 313 kts | 87° |
| 2026-04-24 00:31 | -20.54562 | 130.60122 | 13375 ft | 321 kts | 86° |
| 2026-04-24 00:31 | -20.54412 | 130.62523 | 14326 ft | 327 kts | 86° |
| 2026-04-24 00:32 | -20.54258 | 130.64976 | 15224 ft | 334 kts | 86° |
| 2026-04-24 00:32 | -20.54102 | 130.67482 | 16140 ft | 341 kts | 86° |
| 2026-04-24 00:32 | -20.53942 | 130.70028 | 17024 ft | 348 kts | 86° |
| 2026-04-24 00:32 | -20.53777 | 130.72599 | 17864 ft | 354 kts | 86° |
| 2026-04-24 00:33 | -20.53605 | 130.75262 | 18656 ft | 361 kts | 86° |
| 2026-04-24 00:33 | -20.53425 | 130.77962 | 19315 ft | 368 kts | 86° |
| 2026-04-24 00:33 | -20.53241 | 130.80716 | 19942 ft | 375 kts | 86° |
| 2026-04-24 00:33 | -20.53054 | 130.83487 | 20560 ft | 382 kts | 87° |
| 2026-04-24 00:34 | -20.52856 | 130.86347 | 21172 ft | 390 kts | 87° |
| 2026-04-24 00:34 | -20.52655 | 130.89251 | 21804 ft | 395 kts | 87° |
| 2026-04-24 00:34 | -20.52451 | 130.92209 | 22454 ft | 401 kts | 87° |
| 2026-04-24 00:34 | -20.52243 | 130.95168 | 23115 ft | 405 kts | 86° |
| 2026-04-24 00:35 | -20.52029 | 130.98188 | 23737 ft | 410 kts | 86° |
| 2026-04-24 00:35 | -20.51811 | 131.01240 | 24247 ft | 415 kts | 86° |
| 2026-04-24 00:35 | -20.51589 | 131.04324 | 24721 ft | 419 kts | 86° |
| 2026-04-24 00:35 | -20.51362 | 131.07460 | 25170 ft | 424 kts | 86° |
| 2026-04-24 00:36 | -20.51134 | 131.10574 | 25621 ft | 429 kts | 86° |
| 2026-04-24 00:36 | -20.50899 | 131.13769 | 26059 ft | 433 kts | 86° |
| 2026-04-24 00:36 | -20.50661 | 131.16989 | 26506 ft | 438 kts | 86° |
| 2026-04-24 00:36 | -20.50418 | 131.20243 | 26945 ft | 442 kts | 86° |
| 2026-04-24 00:37 | -20.50262 | 131.23542 | 27355 ft | 445 kts | 94° |
| 2026-04-24 00:37 | -20.50736 | 131.26760 | 27745 ft | 445 kts | 110° |
| 2026-04-24 00:37 | -20.52042 | 131.29729 | 28180 ft | 441 kts | 127° |
| 2026-04-24 00:37 | -20.54008 | 131.32202 | 28603 ft | 436 kts | 143° |
| 2026-04-24 00:38 | -20.56385 | 131.34212 | 29017 ft | 435 kts | 148° |
| 2026-04-24 00:38 | -20.58838 | 131.36136 | 29409 ft | 438 kts | 149° |
| 2026-04-24 00:38 | -20.61302 | 131.38079 | 29791 ft | 441 kts | 149° |
| 2026-04-24 00:38 | -20.63774 | 131.40036 | 30164 ft | 444 kts | 149° |
| 2026-04-24 00:39 | -20.66230 | 131.41981 | 30463 ft | 447 kts | 149° |
| 2026-04-24 00:39 | -20.68750 | 131.43950 | 30750 ft | 449 kts | 150° |
| 2026-04-24 00:39 | -20.71322 | 131.45897 | 31013 ft | 452 kts | 150° |
| 2026-04-24 00:39 | -20.73897 | 131.47856 | 31286 ft | 455 kts | 150° |
| 2026-04-24 00:40 | -20.76452 | 131.49806 | 31545 ft | 459 kts | 150° |
| 2026-04-24 00:40 | -20.79036 | 131.51783 | 31808 ft | 462 kts | 150° |
| 2026-04-24 00:40 | -20.81658 | 131.53795 | 32083 ft | 465 kts | 149° |
| 2026-04-24 00:40 | -20.84303 | 131.55829 | 32349 ft | 468 kts | 149° |
| 2026-04-24 00:41 | -20.86923 | 131.57849 | 32683 ft | 469 kts | 149° |
| 2026-04-24 00:41 | -20.89581 | 131.59896 | 33054 ft | 469 kts | 149° |
| 2026-04-24 00:41 | -20.92207 | 131.61922 | 33421 ft | 469 kts | 150° |
| 2026-04-24 00:41 | -20.94861 | 131.63977 | 33786 ft | 470 kts | 150° |
| 2026-04-24 00:42 | -20.97513 | 131.66034 | 34123 ft | 470 kts | 150° |
| 2026-04-24 00:42 | -21.00138 | 131.68079 | 34426 ft | 471 kts | 150° |
| 2026-04-24 00:42 | -21.02780 | 131.70146 | 34752 ft | 470 kts | 150° |
| 2026-04-24 00:42 | -21.05433 | 131.72224 | 35092 ft | 469 kts | 150° |
| 2026-04-24 00:43 | -21.08035 | 131.74266 | 35416 ft | 468 kts | 150° |
| 2026-04-24 00:43 | -21.10655 | 131.76326 | 35733 ft | 467 kts | 150° |
| 2026-04-24 00:43 | -21.13278 | 131.78393 | 36041 ft | 467 kts | 150° |
| 2026-04-24 00:43 | -21.15895 | 131.80460 | 36359 ft | 466 kts | 150° |
| 2026-04-24 00:44 | -21.18507 | 131.82527 | 36660 ft | 465 kts | 150° |
| 2026-04-24 00:44 | -21.21085 | 131.84563 | 36965 ft | 464 kts | 152° |
| 2026-04-24 00:44 | -21.23806 | 131.86367 | 37347 ft | 455 kts | 157° |
| 2026-04-24 00:44 | -21.26576 | 131.88074 | 37316 ft | 461 kts | 157° |
| 2026-04-24 00:45 | -21.32157 | 131.91589 | 37244 ft | 474 kts | 156° |
| 2026-04-24 00:45 | -21.37880 | 131.95252 | 37179 ft | 481 kts | 156° |
| 2026-04-24 00:46 | -21.43642 | 131.98959 | 37188 ft | 482 kts | 156° |
| 2026-04-24 00:46 | -21.49368 | 132.02650 | 37189 ft | 482 kts | 156° |
| 2026-04-24 00:47 | -21.55122 | 132.06362 | 37189 ft | 482 kts | 156° |
| 2026-04-24 00:47 | -21.60881 | 132.10080 | 37186 ft | 482 kts | 156° |
| 2026-04-24 00:48 | -21.66603 | 132.13779 | 37194 ft | 481 kts | 156° |
| 2026-04-24 00:48 | -21.72366 | 132.17506 | 37188 ft | 481 kts | 156° |
| 2026-04-24 00:49 | -21.78065 | 132.21196 | 37201 ft | 480 kts | 156° |
| 2026-04-24 00:49 | -21.83812 | 132.24921 | 37195 ft | 480 kts | 156° |
| 2026-04-24 00:50 | -21.89516 | 132.28621 | 37203 ft | 480 kts | 156° |
| 2026-04-24 00:50 | -21.95242 | 132.32338 | 37202 ft | 480 kts | 156° |
| 2026-04-24 00:51 | -22.00923 | 132.36030 | 37197 ft | 479 kts | 156° |
| 2026-04-24 00:51 | -22.06641 | 132.39750 | 37198 ft | 479 kts | 156° |
| 2026-04-24 00:52 | -22.12308 | 132.43440 | 37207 ft | 479 kts | 156° |
| 2026-04-24 00:52 | -22.17061 | 132.46538 | 37209 ft | 478 kts | 156° |
| 2026-04-24 00:53 | -22.22776 | 132.50265 | 37211 ft | 478 kts | 156° |
| 2026-04-24 00:53 | -22.28441 | 132.53965 | 37206 ft | 478 kts | 156° |
| 2026-04-24 00:54 | -22.34134 | 132.57685 | 37210 ft | 478 kts | 156° |
| 2026-04-24 00:54 | -22.39842 | 132.61419 | 37214 ft | 478 kts | 156° |
| 2026-04-24 00:55 | -22.45510 | 132.65131 | 37208 ft | 478 kts | 156° |
| 2026-04-24 00:55 | -22.51195 | 132.68860 | 36776 ft | 467 kts | 156° |
| 2026-04-24 00:56 | -22.53889 | 132.70640 | 36507 ft | 441 kts | 157° |
| 2026-04-24 00:56 | -22.56484 | 132.72346 | 35834 ft | 432 kts | 157° |
| 2026-04-24 00:56 | -22.59053 | 132.74024 | 35366 ft | 431 kts | 158° |
| 2026-04-24 00:56 | -22.61630 | 132.75708 | 34737 ft | 434 kts | 158° |
| 2026-04-24 00:57 | -22.64183 | 132.77380 | 34146 ft | 434 kts | 158° |
| 2026-04-24 00:57 | -22.66761 | 132.79071 | 33587 ft | 431 kts | 157° |
| 2026-04-24 00:57 | -22.71865 | 132.82430 | 32465 ft | 426 kts | 156° |
| 2026-04-24 00:58 | -22.74417 | 132.84110 | 31862 ft | 427 kts | 156° |
| 2026-04-24 00:58 | -22.76923 | 132.85761 | 31320 ft | 426 kts | 156° |
| 2026-04-24 00:58 | -22.79465 | 132.87437 | 30730 ft | 427 kts | 155° |
| 2026-04-24 00:58 | -22.82002 | 132.89111 | 30155 ft | 427 kts | 155° |
| 2026-04-24 00:59 | -22.84540 | 132.90786 | 29600 ft | 424 kts | 155° |
| 2026-04-24 00:59 | -22.87078 | 132.92462 | 29025 ft | 426 kts | 155° |
| 2026-04-24 00:59 | -22.89617 | 132.94138 | 28481 ft | 428 kts | 154° |
| 2026-04-24 00:59 | -22.92148 | 132.95810 | 27901 ft | 430 kts | 154° |
| 2026-04-24 01:00 | -22.94700 | 132.97498 | 27338 ft | 427 kts | 153° |
| 2026-04-24 01:00 | -22.97238 | 132.99180 | 26766 ft | 423 kts | 153° |
| 2026-04-24 01:00 | -22.99711 | 133.00818 | 26218 ft | 418 kts | 153° |
| 2026-04-24 01:00 | -23.02187 | 133.02459 | 25661 ft | 413 kts | 152° |
| 2026-04-24 01:01 | -23.04634 | 133.04081 | 25115 ft | 409 kts | 152° |
| 2026-04-24 01:01 | -23.07054 | 133.05686 | 24575 ft | 404 kts | 152° |
| 2026-04-24 01:01 | -23.09421 | 133.07256 | 24048 ft | 400 kts | 151° |
| 2026-04-24 01:01 | -23.11790 | 133.08827 | 23474 ft | 396 kts | 151° |
| 2026-04-24 01:02 | -23.14122 | 133.10377 | 22990 ft | 389 kts | 150° |
| 2026-04-24 01:02 | -23.16428 | 133.11908 | 22471 ft | 386 kts | 150° |
| 2026-04-24 01:02 | -23.18719 | 133.13430 | 21967 ft | 384 kts | 150° |
| 2026-04-24 01:02 | -23.20970 | 133.14926 | 21465 ft | 382 kts | 150° |
| 2026-04-24 01:03 | -23.23230 | 133.16429 | 20963 ft | 379 kts | 150° |
| 2026-04-24 01:03 | -23.25470 | 133.17922 | 20454 ft | 375 kts | 150° |
| 2026-04-24 01:03 | -23.27690 | 133.19399 | 19952 ft | 372 kts | 149° |
| 2026-04-24 01:03 | -23.29862 | 133.20845 | 19468 ft | 368 kts | 149° |
| 2026-04-24 01:04 | -23.32045 | 133.22298 | 18983 ft | 364 kts | 149° |
| 2026-04-24 01:04 | -23.34203 | 133.23735 | 18497 ft | 361 kts | 149° |
| 2026-04-24 01:04 | -23.36334 | 133.25155 | 18022 ft | 357 kts | 148° |
| 2026-04-24 01:04 | -23.38423 | 133.26549 | 17548 ft | 353 kts | 148° |
| 2026-04-24 01:05 | -23.40516 | 133.27945 | 17083 ft | 352 kts | 148° |
| 2026-04-24 01:05 | -23.42596 | 133.29335 | 16626 ft | 349 kts | 148° |
| 2026-04-24 01:05 | -23.44668 | 133.30719 | 16159 ft | 347 kts | 148° |
| 2026-04-24 01:05 | -23.46703 | 133.32078 | 15708 ft | 345 kts | 148° |
| 2026-04-24 01:06 | -23.48745 | 133.33442 | 15251 ft | 342 kts | 148° |
| 2026-04-24 01:06 | -23.50764 | 133.34793 | 14792 ft | 336 kts | 147° |
| 2026-04-24 01:06 | -23.52722 | 133.36102 | 14310 ft | 320 kts | 147° |
| 2026-04-24 01:06 | -23.54531 | 133.37391 | 13918 ft | 306 kts | 139° |
| 2026-04-24 01:07 | -23.55852 | 133.39170 | 13542 ft | 302 kts | 118° |
| 2026-04-24 01:07 | -23.56766 | 133.41197 | 13155 ft | 301 kts | 115° |
| 2026-04-24 01:07 | -23.57631 | 133.43273 | 12741 ft | 299 kts | 114° |
| 2026-04-24 01:07 | -23.58489 | 133.45329 | 12358 ft | 296 kts | 115° |
| 2026-04-24 01:08 | -23.59348 | 133.47362 | 11956 ft | 294 kts | 115° |
| 2026-04-24 01:08 | -23.60206 | 133.49374 | 11573 ft | 291 kts | 115° |
| 2026-04-24 01:08 | -23.61061 | 133.51373 | 11198 ft | 290 kts | 116° |
| 2026-04-24 01:08 | -23.61912 | 133.53365 | 10743 ft | 289 kts | 116° |
| 2026-04-24 01:09 | -23.62766 | 133.55369 | 10082 ft | 286 kts | 116° |
| 2026-04-24 01:09 | -23.63600 | 133.57319 | 9766 ft | 282 kts | 116° |
| 2026-04-24 01:09 | -23.64438 | 133.59256 | 9406 ft | 283 kts | 116° |
| 2026-04-24 01:09 | -23.65271 | 133.61181 | 9035 ft | 285 kts | 116° |
| 2026-04-24 01:10 | -23.66117 | 133.63137 | 8653 ft | 285 kts | 115° |
| 2026-04-24 01:10 | -23.66973 | 133.65096 | 8279 ft | 285 kts | 117° |
| 2026-04-24 01:10 | -23.67970 | 133.66964 | 7900 ft | 282 kts | 122° |
| 2026-04-24 01:10 | -23.68971 | 133.68740 | 7500 ft | 266 kts | 121° |
| 2026-04-24 01:11 | -23.69906 | 133.70421 | 7181 ft | 251 kts | 121° |
| 2026-04-24 01:11 | -23.70773 | 133.72005 | 6918 ft | 240 kts | 120° |
| 2026-04-24 01:11 | -23.71602 | 133.73534 | 6530 ft | 228 kts | 120° |
| 2026-04-24 01:11 | -23.72387 | 133.74964 | 6318 ft | 207 kts | 120° |
| 2026-04-24 01:12 | -23.73142 | 133.76296 | 6106 ft | 205 kts | 120° |
| 2026-04-24 01:12 | -23.73883 | 133.77624 | 5819 ft | 208 kts | 120° |
| 2026-04-24 01:12 | -23.74645 | 133.78988 | 5369 ft | 207 kts | 119° |
| 2026-04-24 01:12 | -23.75363 | 133.80335 | 4927 ft | 203 kts | 117° |
| 2026-04-24 01:13 | -23.76051 | 133.81667 | 4500 ft | 197 kts | 117° |
| 2026-04-24 01:13 | -23.76696 | 133.82931 | 4012 ft | 185 kts | 117° |
| 2026-04-24 01:13 | -23.77291 | 133.84075 | 3532 ft | 162 kts | 116° |
| 2026-04-24 01:13 | -23.77822 | 133.85107 | 3022 ft | 149 kts | 116° |
| 2026-04-24 01:14 | -23.78315 | 133.86025 | 2766 ft | 133 kts | 117° |
| 2026-04-24 01:14 | -23.78772 | 133.86876 | 2522 ft | 126 kts | 118° |
| 2026-04-24 01:14 | -23.79208 | 133.87687 | 2292 ft | 125 kts | 118° |
| 2026-04-24 01:14 | -23.79646 | 133.88498 | 2059 ft | 123 kts | 118° |
| 2026-04-24 01:15 | -23.80073 | 133.89287 | 1845 ft | 119 kts | 118° |
| 2026-04-24 01:15 | -23.80459 | 133.90004 | 1787 ft | 90 kts | 121° |
| 2026-04-24 01:15 | -23.80700 | 133.90449 | 1782 ft | 56 kts | 121° |
| 2026-04-24 01:15 | -23.80866 | 133.90754 | 1778 ft | 35 kts | 120° |
| 2026-04-24 01:16 | -23.80985 | 133.90976 | 1777 ft | 34 kts | 120° |
| 2026-04-24 01:16 | -23.81101 | 133.91189 | 1777 ft | 31 kts | 120° |
| 2026-04-24 01:16 | -23.81158 | 133.91337 | 1776 ft | 20 kts | 99° |
| 2026-04-24 01:16 | -23.81190 | 133.91395 | 1776 ft | 6 kts | 185° |
| 2026-04-24 01:17 | -23.81203 | 133.91361 | 1774 ft | 5 kts | 289° |
| 2026-04-24 01:17 | -23.81176 | 133.91326 | 1775 ft | 7 kts | 310° |
| 2026-04-24 01:17 | -23.81149 | 133.91279 | 1776 ft | 8 kts | 299° |
| 2026-04-24 01:17 | -23.81119 | 133.91225 | 1777 ft | 9 kts | 303° |
| 2026-04-24 01:18 | -23.81085 | 133.91162 | 1779 ft | 11 kts | 300° |
| 2026-04-24 01:18 | -23.81043 | 133.91084 | 1778 ft | 13 kts | 300° |
| 2026-04-24 01:18 | -23.80993 | 133.90992 | 1777 ft | 15 kts | 301° |
| 2026-04-24 01:18 | -23.80938 | 133.90889 | 1779 ft | 16 kts | 301° |
| 2026-04-24 01:19 | -23.80876 | 133.90776 | 1778 ft | 18 kts | 300° |
| 2026-04-24 01:19 | -23.80808 | 133.90649 | 1779 ft | 20 kts | 300° |
| 2026-04-24 01:19 | -23.80737 | 133.90518 | 1781 ft | 20 kts | 300° |
| 2026-04-24 01:19 | -23.80663 | 133.90381 | 1782 ft | 22 kts | 301° |
| 2026-04-24 01:20 | -23.80593 | 133.90326 | 1784 ft | 11 kts | 15° |
| 2026-04-24 01:20 | -23.80519 | 133.90366 | 1783 ft | 13 kts | 29° |
| 2026-04-24 01:20 | -23.80459 | 133.90357 | 1784 ft | 9 kts | 307° |
| 2026-04-24 01:20 | -23.80423 | 133.90291 | 1785 ft | 11 kts | 299° |
| 2026-04-24 01:21 | -23.80383 | 133.90215 | 1786 ft | 12 kts | 299° |
| 2026-04-24 01:21 | -23.80336 | 133.90129 | 1786 ft | 14 kts | 302° |
| 2026-04-24 01:21 | -23.80320 | 133.90099 | 1787 ft | 1 kts | 302° |
| 2026-04-24 01:21 | -23.80308 | 133.90086 | 1787 ft | 3 kts | 328° |
| 2026-04-24 01:22 | -23.80292 | 133.90094 | 1786 ft | 3 kts | 40° |
| 2026-04-24 01:22 | -23.80281 | 133.90123 | 1786 ft | 3 kts | 68° |
| 2026-04-24 01:22 | -23.80278 | 133.90129 | 1787 ft | 0 kts | 68° |